Time;durP1;ratioP1;P1;durP2;ratioP2;P2;SDS_P1;SDS_P2;PMS_P1;PMS_P2;Temp;Humidity;BMP_temperature;BMP_pressure;BME280_temperature;BME280_humidity;BME280_pressure;Samples;Min_cycle;Max_cycle;Signal;HPM_P1;HPM_P2
2023/08/27 00:01:25;;;;;;;0.00;0.00;;;;;;;;;;7383280;19;20176;-68
2023/08/27 00:03:55;;;;;;;0.00;0.00;;;;;;;;;;7383528;19;20163;-68
2023/08/27 00:06:27;;;;;;;0.00;0.00;;;;;;;;;;7387214;19;20152;-68
2023/08/27 00:08:56;;;;;;;0.00;0.00;;;;;;;;;;7383587;19;20156;-68
2023/08/27 00:11:25;;;;;;;0.00;0.00;;;;;;;;;;7385631;19;20152;-68
2023/08/27 00:13:55;;;;;;;0.00;0.00;;;;;;;;;;7384862;19;20163;-68
2023/08/27 00:16:24;;;;;;;0.00;0.00;;;;;;;;;;7384842;19;20180;-68
2023/08/27 00:18:53;;;;;;;0.00;0.00;;;;;;;;;;7384442;19;20140;-68
2023/08/27 00:21:22;;;;;;;0.00;0.00;;;;;;;;;;7385885;19;20151;-68
2023/08/27 00:23:53;;;;;;;0.00;0.00;;;;;;;;;;7376512;19;20163;-68
2023/08/27 00:26:23;;;;;;;0.00;0.00;;;;;;;;;;7383715;19;20141;-68
2023/08/27 00:28:52;;;;;;;0.00;0.00;;;;;;;;;;7384530;19;20163;-68
2023/08/27 00:31:21;;;;;;;0.00;0.00;;;;;;;;;;7382355;19;20191;-68
2023/08/27 00:33:50;;;;;;;0.00;0.00;;;;;;;;;;7381646;19;20185;-68
2023/08/27 00:36:19;;;;;;;0.00;0.00;;;;;;;;;;7382697;19;20149;-68
2023/08/27 00:38:48;;;;;;;0.00;0.00;;;;;;;;;;7385492;19;20648;-68
2023/08/27 00:41:20;;;;;;;0.00;0.00;;;;;;;;;;7382145;19;20183;-68
2023/08/27 00:43:49;;;;;;;0.00;0.00;;;;;;;;;;7380761;19;20169;-68
2023/08/27 00:46:19;;;;;;;0.00;0.00;;;;;;;;;;7382532;19;20153;-68
2023/08/27 00:48:48;;;;;;;0.00;0.00;;;;;;;;;;7382866;19;20157;-69
2023/08/27 00:51:17;;;;;;;0.00;0.00;;;;;;;;;;7381459;19;20195;-68
2023/08/27 00:53:46;;;;;;;0.00;0.00;;;;;;;;;;7383710;19;20133;-69
2023/08/27 00:56:15;;;;;;;0.00;0.00;;;;;;;;;;7383527;19;20149;-68
2023/08/27 00:58:47;;;;;;;0.00;0.00;;;;;;;;;;7382791;19;20163;-69
2023/08/27 01:01:17;;;;;;;0.00;0.00;;;;;;;;;;7383994;19;20161;-68
2023/08/27 01:03:46;;;;;;;0.00;0.00;;;;;;;;;;7384008;19;20203;-68
2023/08/27 01:06:16;;;;;;;0.00;0.00;;;;;;;;;;7385016;19;20133;-68
2023/08/27 01:08:51;;;;;;;0.00;0.00;;;;;;;;;;7383991;19;20218;-68
2023/08/27 01:11:24;;;;;;;0.00;0.00;;;;;;;;;;7385479;19;20152;-68
2023/08/27 01:13:57;;;;;;;0.00;0.00;;;;;;;;;;7380884;19;20160;-68
2023/08/27 01:16:27;;;;;;;0.00;0.00;;;;;;;;;;7383279;19;20152;-68
2023/08/27 01:18:57;;;;;;;0.00;0.00;;;;;;;;;;7380735;19;20231;-68
2023/08/27 01:21:29;;;;;;;0.00;0.00;;;;;;;;;;7381493;19;20203;-69
2023/08/27 01:23:58;;;;;;;0.00;0.00;;;;;;;;;;7380255;19;20164;-69
2023/08/27 01:26:29;;;;;;;0.00;0.00;;;;;;;;;;7381919;19;20145;-69
2023/08/27 01:29:02;;;;;;;0.00;0.00;;;;;;;;;;7381172;19;20156;-69
2023/08/27 01:31:33;;;;;;;0.00;0.00;;;;;;;;;;7378232;19;20873;-68
2023/08/27 01:34:08;;;;;;;0.00;0.00;;;;;;;;;;7380611;19;20157;-68
2023/08/27 01:36:42;;;;;;;0.00;0.00;;;;;;;;;;7381810;19;20155;-68
2023/08/27 01:39:15;;;;;;;0.00;0.00;;;;;;;;;;7381518;19;20186;-68
2023/08/27 01:41:44;;;;;;;0.00;0.00;;;;;;;;;;7380748;19;20156;-68
2023/08/27 01:44:13;;;;;;;0.00;0.00;;;;;;;;;;7382764;19;20144;-68
2023/08/27 01:46:42;;;;;;;0.00;0.00;;;;;;;;;;7383550;19;20145;-68
2023/08/27 01:49:11;;;;;;;0.00;0.00;;;;;;;;;;7381480;19;20162;-67
2023/08/27 01:51:42;;;;;;;0.00;0.00;;;;;;;;;;7380170;19;20176;-68
2023/08/27 01:54:11;;;;;;;0.00;0.00;;;;;;;;;;7386251;19;20148;-68
2023/08/27 01:56:40;;;;;;;0.00;0.00;;;;;;;;;;7389153;19;20156;-68
2023/08/27 01:59:09;;;;;;;0.00;0.00;;;;;;;;;;7388476;19;20157;-68
2023/08/27 02:01:40;;;;;;;0.00;0.00;;;;;;;;;;7386488;19;20202;-68
2023/08/27 02:04:09;;;;;;;0.00;0.00;;;;;;;;;;7387375;19;20156;-69
2023/08/27 02:06:38;;;;;;;0.00;0.00;;;;;;;;;;7390251;19;20180;-69
2023/08/27 02:09:10;;;;;;;0.00;0.00;;;;;;;;;;7389228;19;20148;-69
2023/08/27 02:11:39;;;;;;;0.00;0.00;;;;;;;;;;7386794;19;20181;-68
2023/08/27 02:14:08;;;;;;;0.00;0.00;;;;;;;;;;7386243;19;20149;-68
2023/08/27 02:16:37;;;;;;;0.00;0.00;;;;;;;;;;7387793;19;20160;-68
2023/08/27 02:19:06;;;;;;;0.00;0.00;;;;;;;;;;7387805;19;20152;-68
2023/08/27 02:21:35;;;;;;;0.00;0.00;;;;;;;;;;7386488;19;20248;-69
2023/08/27 02:24:04;;;;;;;0.00;0.00;;;;;;;;;;7385832;19;20172;-67
2023/08/27 02:26:36;;;;;;;0.00;0.00;;;;;;;;;;7389947;19;20133;-68
2023/08/27 02:29:05;;;;;;;0.00;0.00;;;;;;;;;;7386968;19;20156;-68
2023/08/27 02:31:34;;;;;;;0.00;0.00;;;;;;;;;;7384708;19;20176;-69
2023/08/27 02:34:03;;;;;;;0.00;0.00;;;;;;;;;;7387765;19;20169;-68
2023/08/27 02:36:32;;;;;;;0.00;0.00;;;;;;;;;;7387987;19;20528;-68
2023/08/27 02:39:01;;;;;;;0.00;0.00;;;;;;;;;;7388810;19;20145;-68
2023/08/27 02:41:30;;;;;;;0.00;0.00;;;;;;;;;;7385888;19;20184;-68
2023/08/27 02:44:02;;;;;;;0.00;0.00;;;;;;;;;;7387503;19;20179;-68
2023/08/27 02:46:31;;;;;;;0.00;0.00;;;;;;;;;;7387802;19;20161;-68
2023/08/27 02:49:00;;;;;;;0.00;0.00;;;;;;;;;;7387751;19;20148;-68
2023/08/27 02:51:29;;;;;;;0.00;0.00;;;;;;;;;;7388119;19;20153;-68
2023/08/27 02:53:58;;;;;;;0.00;0.00;;;;;;;;;;7386395;19;20155;-67
2023/08/27 02:56:27;;;;;;;0.00;0.00;;;;;;;;;;7386891;19;20192;-68
2023/08/27 02:58:56;;;;;;;0.00;0.00;;;;;;;;;;7386454;19;20180;-68
2023/08/27 03:01:27;;;;;;;0.00;0.00;;;;;;;;;;7385114;19;20185;-67
2023/08/27 03:03:56;;;;;;;0.00;0.00;;;;;;;;;;7384852;19;20538;-68
2023/08/27 03:06:26;;;;;;;0.00;0.00;;;;;;;;;;7384478;19;20149;-68
2023/08/27 03:08:55;;;;;;;0.00;0.00;;;;;;;;;;7387575;19;20196;-68
2023/08/27 03:11:29;;;;;;;0.00;0.00;;;;;;;;;;7385509;19;20244;-68
2023/08/27 03:14:01;;;;;;;0.00;0.00;;;;;;;;;;7382945;19;20181;-68
2023/08/27 03:16:32;;;;;;;0.00;0.00;;;;;;;;;;7386393;19;20153;-68
2023/08/27 03:19:02;;;;;;;0.00;0.00;;;;;;;;;;7385589;19;20173;-68
2023/08/27 03:21:31;;;;;;;0.00;0.00;;;;;;;;;;7384642;19;20184;-68
2023/08/27 03:24:01;;;;;;;0.00;0.00;;;;;;;;;;7381998;19;20145;-68
2023/08/27 03:26:30;;;;;;;0.00;0.00;;;;;;;;;;7384767;19;20191;-68
2023/08/27 03:29:00;;;;;;;0.00;0.00;;;;;;;;;;7385952;19;20185;-69
2023/08/27 03:31:29;;;;;;;0.00;0.00;;;;;;;;;;7387042;19;20216;-68
2023/08/27 03:34:00;;;;;;;0.00;0.00;;;;;;;;;;7385802;19;20145;-69
2023/08/27 03:36:29;;;;;;;0.00;0.00;;;;;;;;;;7386699;19;20152;-68
2023/08/27 03:38:58;;;;;;;0.00;0.00;;;;;;;;;;7385597;19;20234;-68
2023/08/27 03:41:28;;;;;;;0.00;0.00;;;;;;;;;;7384461;19;20176;-68
2023/08/27 03:43:57;;;;;;;0.00;0.00;;;;;;;;;;7385185;19;20163;-68
2023/08/27 03:46:26;;;;;;;0.00;0.00;;;;;;;;;;7385424;19;20157;-68
2023/08/27 03:48:56;;;;;;;0.00;0.00;;;;;;;;;;7384871;19;20570;-68
2023/08/27 03:51:28;;;;;;;0.00;0.00;;;;;;;;;;7383882;19;20172;-68
2023/08/27 03:53:57;;;;;;;0.00;0.00;;;;;;;;;;7383753;19;20155;-68
2023/08/27 03:56:26;;;;;;;0.00;0.00;;;;;;;;;;7385092;19;20192;-67
2023/08/27 03:58:55;;;;;;;0.00;0.00;;;;;;;;;;7385380;19;20152;-68
2023/08/27 04:01:24;;;;;;;0.00;0.00;;;;;;;;;;7385117;19;20180;-68
2023/08/27 04:03:54;;;;;;;0.00;0.00;;;;;;;;;;7382616;19;20148;-69
2023/08/27 04:06:23;;;;;;;0.00;0.00;;;;;;;;;;7385981;19;20149;-68
2023/08/27 04:08:55;;;;;;;0.00;0.00;;;;;;;;;;7383648;19;20156;-68
2023/08/27 04:11:24;;;;;;;0.00;0.00;;;;;;;;;;7383337;19;20195;-69
2023/08/27 04:13:53;;;;;;;0.00;0.00;;;;;;;;;;7385593;19;20141;-68
2023/08/27 04:16:23;;;;;;;0.00;0.00;;;;;;;;;;7382888;19;20574;-68
2023/08/27 04:18:52;;;;;;;0.00;0.00;;;;;;;;;;7386844;19;20132;-67
2023/08/27 04:21:21;;;;;;;0.00;0.00;;;;;;;;;;7382042;19;20199;-68
2023/08/27 04:23:50;;;;;;;0.00;0.00;;;;;;;;;;7382984;19;20163;-68
2023/08/27 04:26:21;;;;;;;0.00;0.00;;;;;;;;;;7385285;19;20139;-68
2023/08/27 04:28:51;;;;;;;0.00;0.00;;;;;;;;;;7383272;19;20148;-68
2023/08/27 04:31:20;;;;;;;0.00;0.00;;;;;;;;;;7381656;19;20206;-67
2023/08/27 04:33:49;;;;;;;0.00;0.00;;;;;;;;;;7382383;19;20630;-69
2023/08/27 04:36:18;;;;;;;0.00;0.00;;;;;;;;;;7382641;19;20145;-68
2023/08/27 04:38:47;;;;;;;0.00;0.00;;;;;;;;;;7385196;19;20164;-68
2023/08/27 04:41:16;;;;;;;0.00;0.00;;;;;;;;;;7382585;19;20192;-69
2023/08/27 04:43:48;;;;;;;0.00;0.00;;;;;;;;;;7381966;19;20149;-68
2023/08/27 04:46:17;;;;;;;0.00;0.00;;;;;;;;;;7384062;19;20160;-69
2023/08/27 04:48:47;;;;;;;0.00;0.00;;;;;;;;;;7383678;19;20661;-69
2023/08/27 04:51:18;;;;;;;0.00;0.00;;;;;;;;;;7382133;19;20192;-68
2023/08/27 04:53:47;;;;;;;0.00;0.00;;;;;;;;;;7383965;19;20137;-68
2023/08/27 04:56:16;;;;;;;0.00;0.00;;;;;;;;;;7382837;19;20183;-69
2023/08/27 04:58:45;;;;;;;0.00;0.00;;;;;;;;;;7381885;19;20152;-69
2023/08/27 05:01:17;;;;;;;0.00;0.00;;;;;;;;;;7381287;19;20232;-67
2023/08/27 05:03:46;;;;;;;0.00;0.00;;;;;;;;;;7381299;19;20195;-68
2023/08/27 05:06:16;;;;;;;0.00;0.00;;;;;;;;;;7382612;19;20628;-69
2023/08/27 05:08:45;;;;;;;0.00;0.00;;;;;;;;;;7382163;19;20156;-68
2023/08/27 05:11:15;;;;;;;0.00;0.00;;;;;;;;;;7381026;19;20164;-68
2023/08/27 05:13:44;;;;;;;0.00;0.00;;;;;;;;;;7381959;19;20165;-69
2023/08/27 05:16:13;;;;;;;0.00;0.00;;;;;;;;;;7382235;19;20148;-69
2023/08/27 05:18:45;;;;;;;0.00;0.00;;;;;;;;;;7382835;19;20173;-69
2023/08/27 05:21:14;;;;;;;0.00;0.00;;;;;;;;;;7382426;19;20149;-68
2023/08/27 05:23:44;;;;;;;0.00;0.00;;;;;;;;;;7380002;19;20159;-68
2023/08/27 05:26:13;;;;;;;0.00;0.00;;;;;;;;;;7382229;19;20152;-69
2023/08/27 05:28:42;;;;;;;0.00;0.00;;;;;;;;;;7381452;19;20148;-68
2023/08/27 05:31:12;;;;;;;0.00;0.00;;;;;;;;;;7380998;19;20175;-68
2023/08/27 05:33:41;;;;;;;0.00;0.00;;;;;;;;;;7382739;19;20141;-69
2023/08/27 05:36:13;;;;;;;0.00;0.00;;;;;;;;;;7382422;19;20208;-69
2023/08/27 05:38:43;;;;;;;0.00;0.00;;;;;;;;;;7384162;19;20159;-68
2023/08/27 05:41:12;;;;;;;0.00;0.00;;;;;;;;;;7383075;19;20161;-69
2023/08/27 05:43:41;;;;;;;0.00;0.00;;;;;;;;;;7381373;19;20141;-68
2023/08/27 05:46:10;;;;;;;0.00;0.00;;;;;;;;;;7383384;19;20145;-69
2023/08/27 05:48:40;;;;;;;0.00;0.00;;;;;;;;;;7382023;19;20232;-68
2023/08/27 05:51:09;;;;;;;0.00;0.00;;;;;;;;;;7381561;19;20156;-67
2023/08/27 05:53:44;;;;;;;0.00;0.00;;;;;;;;;;7383380;19;20164;-68
2023/08/27 05:56:13;;;;;;;0.00;0.00;;;;;;;;;;7382443;19;20175;-69
2023/08/27 05:58:42;;;;;;;0.00;0.00;;;;;;;;;;7380816;19;20160;-69
2023/08/27 06:01:12;;;;;;;0.00;0.00;;;;;;;;;;7380031;19;20156;-68
2023/08/27 06:03:41;;;;;;;0.00;0.00;;;;;;;;;;7378384;19;20156;-69
2023/08/27 06:06:10;;;;;;;0.00;0.00;;;;;;;;;;7381181;19;20157;-67
2023/08/27 06:08:40;;;;;;;0.00;0.00;;;;;;;;;;7380227;19;20149;-68
2023/08/27 06:11:12;;;;;;;0.00;0.00;;;;;;;;;;7379301;19;20177;-69
2023/08/27 06:13:41;;;;;;;0.00;0.00;;;;;;;;;;7379669;19;20157;-68
2023/08/27 06:16:13;;;;;;;0.00;0.00;;;;;;;;;;7380183;19;20160;-68
2023/08/27 06:18:42;;;;;;;0.00;0.00;;;;;;;;;;7379848;19;20220;-68
2023/08/27 06:21:11;;;;;;;0.00;0.00;;;;;;;;;;7378842;19;20149;-69
2023/08/27 06:23:41;;;;;;;0.00;0.00;;;;;;;;;;7380685;19;20158;-69
2023/08/27 06:26:13;;;;;;;0.00;0.00;;;;;;;;;;7381028;19;20156;-68
2023/08/27 06:28:42;;;;;;;0.00;0.00;;;;;;;;;;7380758;19;20187;-68
2023/08/27 06:31:12;;;;;;;0.00;0.00;;;;;;;;;;7379082;19;20145;-68
2023/08/27 06:33:41;;;;;;;0.00;0.00;;;;;;;;;;7379172;19;20153;-68
2023/08/27 06:36:10;;;;;;;0.00;0.00;;;;;;;;;;7380742;19;20160;-69
2023/08/27 06:38:39;;;;;;;0.00;0.00;;;;;;;;;;7382229;19;20193;-69
2023/08/27 06:41:08;;;;;;;0.00;0.00;;;;;;;;;;7381962;19;20149;-69
2023/08/27 06:43:40;;;;;;;0.00;0.00;;;;;;;;;;7386197;19;20167;-69
2023/08/27 06:46:12;;;;;;;0.00;0.00;;;;;;;;;;7386836;19;20208;-69
2023/08/27 06:48:43;;;;;;;0.00;0.00;;;;;;;;;;7386645;19;20222;-69
2023/08/27 06:51:12;;;;;;;0.00;0.00;;;;;;;;;;7386141;19;20178;-68
2023/08/27 06:53:41;;;;;;;0.00;0.00;;;;;;;;;;7386733;19;20152;-68
2023/08/27 06:56:10;;;;;;;0.00;0.00;;;;;;;;;;7387800;19;20176;-68
2023/08/27 06:58:42;;;;;;;0.00;0.00;;;;;;;;;;7386207;19;20148;-68
2023/08/27 07:01:11;;;;;;;0.00;0.00;;;;;;;;;;7386462;19;20179;-69
2023/08/27 07:03:41;;;;;;;0.00;0.00;;;;;;;;;;7384708;19;20175;-68
2023/08/27 07:06:11;;;;;;;0.00;0.00;;;;;;;;;;7387038;19;20167;-69
2023/08/27 07:08:41;;;;;;;0.00;0.00;;;;;;;;;;7385928;19;20159;-68
2023/08/27 07:11:10;;;;;;;0.00;0.00;;;;;;;;;;7385082;19;20153;-68
2023/08/27 07:13:42;;;;;;;0.00;0.00;;;;;;;;;;7384907;19;20167;-67
2023/08/27 07:16:12;;;;;;;0.00;0.00;;;;;;;;;;7385487;19;20171;-69
2023/08/27 07:18:41;;;;;;;0.00;0.00;;;;;;;;;;7386781;19;20224;-68
2023/08/27 07:21:10;;;;;;;0.00;0.00;;;;;;;;;;7387329;19;20137;-69
2023/08/27 07:23:39;;;;;;;0.00;0.00;;;;;;;;;;7384829;19;20153;-67
2023/08/27 07:26:09;;;;;;;0.00;0.00;;;;;;;;;;7385985;19;20160;-68
2023/08/27 07:28:39;;;;;;;0.00;0.00;;;;;;;;;;7385982;19;20152;-69
2023/08/27 07:31:10;;;;;;;0.00;0.00;;;;;;;;;;7386230;19;20173;-67
2023/08/27 07:33:40;;;;;;;0.00;0.00;;;;;;;;;;7385166;19;20161;-69
2023/08/27 07:36:09;;;;;;;0.00;0.00;;;;;;;;;;7384814;19;20157;-69
2023/08/27 07:38:42;;;;;;;0.00;0.00;;;;;;;;;;7388376;19;20246;-67
2023/08/27 07:41:13;;;;;;;0.00;0.00;;;;;;;;;;7385961;19;20170;-69
2023/08/27 07:43:43;;;;;;;0.00;0.00;;;;;;;;;;7384117;19;20145;-69
2023/08/27 07:46:15;;;;;;;0.00;0.00;;;;;;;;;;7386166;19;20232;-68
2023/08/27 07:48:44;;;;;;;0.00;0.00;;;;;;;;;;7385709;19;20164;-68
2023/08/27 07:51:13;;;;;;;0.00;0.00;;;;;;;;;;7383422;19;20180;-69
2023/08/27 07:53:43;;;;;;;0.00;0.00;;;;;;;;;;7384027;19;20157;-68
2023/08/27 07:56:12;;;;;;;0.00;0.00;;;;;;;;;;7386622;19;20228;-69
2023/08/27 07:58:41;;;;;;;0.00;0.00;;;;;;;;;;7383567;19;20145;-68
2023/08/27 08:01:11;;;;;;;0.00;0.00;;;;;;;;;;7384255;19;20171;-69
2023/08/27 08:03:43;;;;;;;0.00;0.00;;;;;;;;;;7382942;19;20232;-68
2023/08/27 08:06:12;;;;;;;0.00;0.00;;;;;;;;;;7384829;19;20160;-69
2023/08/27 08:08:41;;;;;;;0.00;0.00;;;;;;;;;;7383056;19;20152;-68
2023/08/27 08:11:10;;;;;;;0.00;0.00;;;;;;;;;;7384432;19;20231;-69
2023/08/27 08:13:41;;;;;;;0.00;0.00;;;;;;;;;;7384836;19;20140;-69
2023/08/27 08:16:10;;;;;;;0.00;0.00;;;;;;;;;;7385192;19;20201;-69
2023/08/27 08:18:42;;;;;;;0.00;0.00;;;;;;;;;;7385974;19;20183;-68
2023/08/27 08:21:11;;;;;;;0.00;0.00;;;;;;;;;;7384350;19;20129;-69
2023/08/27 08:23:40;;;;;;;0.00;0.00;;;;;;;;;;7384155;19;20139;-68
2023/08/27 08:26:09;;;;;;;0.00;0.00;;;;;;;;;;7385922;19;20129;-69
2023/08/27 08:28:38;;;;;;;0.00;0.00;;;;;;;;;;7383409;19;20161;-69
2023/08/27 08:31:08;;;;;;;0.00;0.00;;;;;;;;;;7382522;19;20152;-68
2023/08/27 08:33:36;;;;;;;0.00;0.00;;;;;;;;;;7382262;19;20161;-69
2023/08/27 08:36:08;;;;;;;0.00;0.00;;;;;;;;;;7385005;19;20136;-68
2023/08/27 08:38:37;;;;;;;0.00;0.00;;;;;;;;;;7383813;19;20160;-67
2023/08/27 08:41:08;;;;;;;0.00;0.00;;;;;;;;;;7382512;19;20157;-69
2023/08/27 08:43:39;;;;;;;0.00;0.00;;;;;;;;;;7384488;19;20136;-68
2023/08/27 08:46:09;;;;;;;0.00;0.00;;;;;;;;;;7383693;19;20166;-68
2023/08/27 08:48:41;;;;;;;0.00;0.00;;;;;;;;;;7383580;19;20157;-68
2023/08/27 08:51:14;;;;;;;0.00;0.00;;;;;;;;;;7382254;19;20148;-69
2023/08/27 08:53:44;;;;;;;0.00;0.00;;;;;;;;;;7382552;19;20156;-69
2023/08/27 08:56:14;;;;;;;0.00;0.00;;;;;;;;;;7383417;19;20152;-69
2023/08/27 08:58:44;;;;;;;0.00;0.00;;;;;;;;;;7384827;19;20141;-69
2023/08/27 09:01:14;;;;;;;0.00;0.00;;;;;;;;;;7383842;19;20151;-68
2023/08/27 09:03:43;;;;;;;0.00;0.00;;;;;;;;;;7379625;19;20163;-68
2023/08/27 09:06:16;;;;;;;0.00;0.00;;;;;;;;;;7382476;19;20160;-69
2023/08/27 09:08:45;;;;;;;0.00;0.00;;;;;;;;;;7382744;19;20156;-68
2023/08/27 09:11:14;;;;;;;0.00;0.00;;;;;;;;;;7381717;19;20167;-69
2023/08/27 09:13:44;;;;;;;0.00;0.00;;;;;;;;;;7381325;19;20180;-68
2023/08/27 09:16:13;;;;;;;0.00;0.00;;;;;;;;;;7383308;19;20160;-68
2023/08/27 09:18:42;;;;;;;0.00;0.00;;;;;;;;;;7383845;19;20129;-68
2023/08/27 09:21:11;;;;;;;0.00;0.00;;;;;;;;;;7380986;19;20156;-67
2023/08/27 09:23:43;;;;;;;0.00;0.00;;;;;;;;;;7381578;19;20153;-67
2023/08/27 09:26:14;;;;;;;0.00;0.00;;;;;;;;;;7381871;19;20165;-68
2023/08/27 09:28:43;;;;;;;0.00;0.00;;;;;;;;;;7383366;19;20550;-68
2023/08/27 09:31:12;;;;;;;0.00;0.00;;;;;;;;;;7381803;19;20168;-68
2023/08/27 09:33:42;;;;;;;0.00;0.00;;;;;;;;;;7381784;19;20300;-68
2023/08/27 09:36:12;;;;;;;0.00;0.00;;;;;;;;;;7383377;19;20167;-68
2023/08/27 09:38:46;;;;;;;0.00;0.00;;;;;;;;;;7382207;19;20156;-68
2023/08/27 09:41:18;;;;;;;0.00;0.00;;;;;;;;;;7380524;19;20152;-69
2023/08/27 09:43:50;;;;;;;0.00;0.00;;;;;;;;;;7380706;19;20173;-69
2023/08/27 09:46:19;;;;;;;0.00;0.00;;;;;;;;;;7384325;19;20145;-69
2023/08/27 09:48:59;;;;;;;0.00;0.00;;;;;;;;;;7382262;19;20612;-69
2023/08/27 09:51:30;;;;;;;0.00;0.00;;;;;;;;;;7381250;19;20149;-68
2023/08/27 09:54:02;;;;;;;0.00;0.00;;;;;;;;;;7381503;19;20160;-69
2023/08/27 09:56:31;;;;;;;0.00;0.00;;;;;;;;;;7382982;19;20186;-69
2023/08/27 09:59:08;;;;;;;0.00;0.00;;;;;;;;;;7382755;19;20141;-69
2023/08/27 10:01:37;;;;;;;0.00;0.00;;;;;;;;;;7380079;19;20186;-68
2023/08/27 10:04:09;;;;;;;0.00;0.00;;;;;;;;;;7381672;19;20163;-68
2023/08/27 10:06:38;;;;;;;0.00;0.00;;;;;;;;;;7381726;19;20191;-68
2023/08/27 10:09:10;;;;;;;0.00;0.00;;;;;;;;;;7383109;19;20141;-69
2023/08/27 10:11:39;;;;;;;0.00;0.00;;;;;;;;;;7380206;19;20199;-68
2023/08/27 10:14:08;;;;;;;0.00;0.00;;;;;;;;;;7380466;19;20160;-69
2023/08/27 10:16:37;;;;;;;0.00;0.00;;;;;;;;;;7390257;19;20184;-69
2023/08/27 10:19:07;;;;;;;0.00;0.00;;;;;;;;;;7389368;19;20162;-68
2023/08/27 10:21:36;;;;;;;0.00;0.00;;;;;;;;;;7388839;19;20179;-69
2023/08/27 10:24:06;;;;;;;0.00;0.00;;;;;;;;;;7388237;19;20137;-69
2023/08/27 10:26:38;;;;;;;0.00;0.00;;;;;;;;;;7389387;19;20133;-69
2023/08/27 10:29:09;;;;;;;0.00;0.00;;;;;;;;;;7388823;19;20179;-69
2023/08/27 10:31:39;;;;;;;0.00;0.00;;;;;;;;;;7386390;19;20184;-69
2023/08/27 10:34:10;;;;;;;0.00;0.00;;;;;;;;;;7388216;19;20144;-68
2023/08/27 10:36:40;;;;;;;0.00;0.00;;;;;;;;;;7388125;19;20714;-68
2023/08/27 10:39:10;;;;;;;0.00;0.00;;;;;;;;;;7389494;19;20156;-68
2023/08/27 10:41:42;;;;;;;0.00;0.00;;;;;;;;;;7385860;19;20734;-68
2023/08/27 10:44:13;;;;;;;0.00;0.00;;;;;;;;;;7387334;19;20152;-68
2023/08/27 10:46:42;;;;;;;0.00;0.00;;;;;;;;;;7387369;19;20153;-69
2023/08/27 10:49:19;;;;;;;0.00;0.00;;;;;;;;;;7388863;19;20155;-68
2023/08/27 10:51:48;;;;;;;0.00;0.00;;;;;;;;;;7386976;19;20169;-69
2023/08/27 10:54:27;;;;;;;0.00;0.00;;;;;;;;;;7388598;19;20139;-69
2023/08/27 10:56:58;;;;;;;0.00;0.00;;;;;;;;;;7388553;19;20220;-69
2023/08/27 10:59:33;;;;;;;0.00;0.00;;;;;;;;;;7388177;19;20153;-69
2023/08/27 11:02:07;;;;;;;0.00;0.00;;;;;;;;;;7384878;19;20184;-69
2023/08/27 11:04:38;;;;;;;0.00;0.00;;;;;;;;;;7388724;19;20132;-70
2023/08/27 11:07:11;;;;;;;0.00;0.00;;;;;;;;;;7387760;19;20754;-69
2023/08/27 11:09:47;;;;;;;0.00;0.00;;;;;;;;;;7387635;19;20153;-69
2023/08/27 11:12:26;;;;;;;0.00;0.00;;;;;;;;;;7386010;19;20233;-69
2023/08/27 11:14:56;;;;;;;0.00;0.00;;;;;;;;;;7387875;19;20133;-69
2023/08/27 11:17:26;;;;;;;0.00;0.00;;;;;;;;;;7387902;19;20145;-69
2023/08/27 11:19:57;;;;;;;0.00;0.00;;;;;;;;;;7387131;19;20147;-69
2023/08/27 11:22:26;;;;;;;0.00;0.00;;;;;;;;;;7383936;19;20175;-69
2023/08/27 11:24:56;;;;;;;0.00;0.00;;;;;;;;;;7384476;19;20521;-69
2023/08/27 11:27:30;;;;;;;0.00;0.00;;;;;;;;;;7385308;19;20163;-69
2023/08/27 11:29:59;;;;;;;0.00;0.00;;;;;;;;;;7387305;19;20141;-69
2023/08/27 11:32:28;;;;;;;0.00;0.00;;;;;;;;;;7383389;19;20192;-69
2023/08/27 11:34:58;;;;;;;0.00;0.00;;;;;;;;;;7385164;19;20182;-69
2023/08/27 11:37:34;;;;;;;0.00;0.00;;;;;;;;;;7386149;19;20661;-68
2023/08/27 11:40:04;;;;;;;0.00;0.00;;;;;;;;;;7385776;19;20156;-69
2023/08/27 11:42:36;;;;;;;0.00;0.00;;;;;;;;;;7384308;19;20184;-68
2023/08/27 11:45:05;;;;;;;0.00;0.00;;;;;;;;;;7387494;19;20167;-69
2023/08/27 11:47:34;;;;;;;0.00;0.00;;;;;;;;;;7387792;19;20159;-69
2023/08/27 11:50:10;;;;;;;0.00;0.00;;;;;;;;;;7388052;19;20164;-68
2023/08/27 11:52:39;;;;;;;0.00;0.00;;;;;;;;;;7386055;19;20158;-69
2023/08/27 11:55:09;;;;;;;0.00;0.00;;;;;;;;;;7387272;19;20149;-69
2023/08/27 11:57:40;;;;;;;0.00;0.00;;;;;;;;;;7386644;19;20159;-70
2023/08/27 12:00:13;;;;;;;0.00;0.00;;;;;;;;;;7386851;19;20470;-70
2023/08/27 12:02:43;;;;;;;0.00;0.00;;;;;;;;;;7383381;19;20191;-69
2023/08/27 12:05:12;;;;;;;0.00;0.00;;;;;;;;;;7383935;19;20159;-69
2023/08/27 12:07:41;;;;;;;0.00;0.00;;;;;;;;;;7384589;19;20177;-69
2023/08/27 12:10:11;;;;;;;0.00;0.00;;;;;;;;;;7383920;19;20164;-69
2023/08/27 12:12:44;;;;;;;0.00;0.00;;;;;;;;;;7383242;19;20159;-68
2023/08/27 12:15:14;;;;;;;0.00;0.00;;;;;;;;;;7386473;19;20164;-69
2023/08/27 12:17:43;;;;;;;0.00;0.00;;;;;;;;;;7383533;19;20149;-70
2023/08/27 12:20:13;;;;;;;0.00;0.00;;;;;;;;;;7384243;19;20152;-69
2023/08/27 12:22:46;;;;;;;0.00;0.00;;;;;;;;;;7383308;19;20280;-69
2023/08/27 12:25:15;;;;;;;0.00;0.00;;;;;;;;;;7385668;19;20425;-69
2023/08/27 12:27:47;;;;;;;0.00;0.00;;;;;;;;;;7384918;19;20137;-69
2023/08/27 12:30:16;;;;;;;0.00;0.00;;;;;;;;;;7384730;19;20161;-69
2023/08/27 12:32:45;;;;;;;0.00;0.00;;;;;;;;;;7383173;19;20160;-69
2023/08/27 12:35:14;;;;;;;0.00;0.00;;;;;;;;;;7385065;19;20141;-69
2023/08/27 12:37:43;;;;;;;0.00;0.00;;;;;;;;;;7384580;19;20638;-69
2023/08/27 12:40:13;;;;;;;0.00;0.00;;;;;;;;;;7383210;19;20165;-67
2023/08/27 12:42:42;;;;;;;0.00;0.00;;;;;;;;;;7382879;19;20519;-67
2023/08/27 12:45:14;;;;;;;0.00;0.00;;;;;;;;;;7384436;19;20164;-68
2023/08/27 12:47:43;;;;;;;0.00;0.00;;;;;;;;;;7384094;19;20157;-68
2023/08/27 12:50:13;;;;;;;0.00;0.00;;;;;;;;;;7384405;19;20158;-68
2023/08/27 12:52:42;;;;;;;0.00;0.00;;;;;;;;;;7383097;19;20220;-68
2023/08/27 12:55:11;;;;;;;0.00;0.00;;;;;;;;;;7384215;19;20148;-67
2023/08/27 12:57:41;;;;;;;0.00;0.00;;;;;;;;;;7384060;19;20183;-67
2023/08/27 13:00:14;;;;;;;0.00;0.00;;;;;;;;;;7384913;19;20145;-68
2023/08/27 13:02:43;;;;;;;0.00;0.00;;;;;;;;;;7381802;19;20188;-68
2023/08/27 13:05:12;;;;;;;0.00;0.00;;;;;;;;;;7383832;19;20140;-68
2023/08/27 13:07:41;;;;;;;0.00;0.00;;;;;;;;;;7383552;19;20129;-68
2023/08/27 13:10:10;;;;;;;0.00;0.00;;;;;;;;;;7381611;19;20148;-68
2023/08/27 13:12:39;;;;;;;0.00;0.00;;;;;;;;;;7380630;19;20187;-68
2023/08/27 13:15:08;;;;;;;0.00;0.00;;;;;;;;;;7384086;19;20141;-69
2023/08/27 13:17:41;;;;;;;0.00;0.00;;;;;;;;;;7384996;19;20145;-67
2023/08/27 13:20:10;;;;;;;0.00;0.00;;;;;;;;;;7384087;19;20143;-68
2023/08/27 13:22:40;;;;;;;0.00;0.00;;;;;;;;;;7379785;19;20180;-68
2023/08/27 13:25:11;;;;;;;0.00;0.00;;;;;;;;;;7381838;19;20160;-68
2023/08/27 13:27:41;;;;;;;0.00;0.00;;;;;;;;;;7383723;19;20132;-67
2023/08/27 13:30:10;;;;;;;0.00;0.00;;;;;;;;;;7382181;19;20189;-68
2023/08/27 13:32:42;;;;;;;0.00;0.00;;;;;;;;;;7381108;19;20149;-67
2023/08/27 13:35:11;;;;;;;0.00;0.00;;;;;;;;;;7382966;19;20132;-67
2023/08/27 13:37:40;;;;;;;0.00;0.00;;;;;;;;;;7384406;19;20132;-67
2023/08/27 13:40:10;;;;;;;0.00;0.00;;;;;;;;;;7382352;19;20175;-68
2023/08/27 13:42:39;;;;;;;0.00;0.00;;;;;;;;;;7379841;19;20201;-68
2023/08/27 13:45:09;;;;;;;0.00;0.00;;;;;;;;;;7382837;19;20137;-68
2023/08/27 13:47:38;;;;;;;0.00;0.00;;;;;;;;;;7380242;19;20170;-67
2023/08/27 13:50:10;;;;;;;0.00;0.00;;;;;;;;;;7384028;19;20234;-68
2023/08/27 13:52:40;;;;;;;0.00;0.00;;;;;;;;;;7386856;19;20246;-68
2023/08/27 13:55:10;;;;;;;0.00;0.00;;;;;;;;;;7390377;19;20145;-68
2023/08/27 13:57:39;;;;;;;0.00;0.00;;;;;;;;;;7391455;19;20244;-68
2023/08/27 14:00:08;;;;;;;0.00;0.00;;;;;;;;;;7388890;19;20161;-68
2023/08/27 14:02:38;;;;;;;0.00;0.00;;;;;;;;;;7388391;19;20217;-68
2023/08/27 14:05:10;;;;;;;0.00;0.00;;;;;;;;;;7390263;19;20196;-68
2023/08/27 14:07:40;;;;;;;0.00;0.00;;;;;;;;;;7385818;19;20159;-67
2023/08/27 14:10:09;;;;;;;0.00;0.00;;;;;;;;;;7390638;19;20137;-67
2023/08/27 14:12:39;;;;;;;0.00;0.00;;;;;;;;;;7385000;19;20201;-67
2023/08/27 14:15:08;;;;;;;0.00;0.00;;;;;;;;;;7390289;19;20168;-67
2023/08/27 14:17:38;;;;;;;0.00;0.00;;;;;;;;;;7389845;19;20176;-68
2023/08/27 14:20:10;;;;;;;0.00;0.00;;;;;;;;;;7389486;19;20142;-68
2023/08/27 14:22:39;;;;;;;0.00;0.00;;;;;;;;;;7385785;19;20207;-67
2023/08/27 14:25:09;;;;;;;0.00;0.00;;;;;;;;;;7388872;19;20180;-68
2023/08/27 14:27:40;;;;;;;0.00;0.00;;;;;;;;;;7386315;19;20167;-69
2023/08/27 14:30:10;;;;;;;0.00;0.00;;;;;;;;;;7388273;19;20180;-68
2023/08/27 14:32:39;;;;;;;0.00;0.00;;;;;;;;;;7385007;19;20184;-68
2023/08/27 14:35:11;;;;;;;0.00;0.00;;;;;;;;;;7386506;19;20204;-67
2023/08/27 14:37:40;;;;;;;0.00;0.00;;;;;;;;;;7389144;19;20143;-67
2023/08/27 14:40:10;;;;;;;0.00;0.00;;;;;;;;;;7386486;19;20183;-68
2023/08/27 14:42:39;;;;;;;0.00;0.00;;;;;;;;;;7385931;19;20191;-68
2023/08/27 14:45:09;;;;;;;0.00;0.00;;;;;;;;;;7388738;19;20140;-68
2023/08/27 14:47:38;;;;;;;0.00;0.00;;;;;;;;;;7385471;19;20164;-69
2023/08/27 14:50:10;;;;;;;0.00;0.00;;;;;;;;;;7388687;19;20148;-68
2023/08/27 14:52:39;;;;;;;0.00;0.00;;;;;;;;;;7386862;19;20152;-68
2023/08/27 14:55:09;;;;;;;0.00;0.00;;;;;;;;;;7386364;19;20153;-68
2023/08/27 14:57:38;;;;;;;0.00;0.00;;;;;;;;;;7387445;19;20157;-68
2023/08/27 15:00:08;;;;;;;0.00;0.00;;;;;;;;;;7388213;19;20234;-69